Time;durP1;ratioP1;P1;durP2;ratioP2;P2;SDS_P1;SDS_P2;PMS_P1;PMS_P2;Temp;Humidity;BMP_temperature;BMP_pressure;BME280_temperature;BME280_humidity;BME280_pressure;Samples;Min_cycle;Max_cycle;Signal;HPM_P1;HPM_P2
2022/07/13 00:01:44;;;;;;;24.10;22.00;;;;;;;21.11;73.33;102071.38;5042858;28;20025;-78
2022/07/13 00:04:10;;;;;;;24.17;22.02;;;;;;;21.08;74.24;102084.06;5046686;28;20037;-78
2022/07/13 00:06:36;;;;;;;23.10;21.00;;;;;;;21.04;74.61;102083.56;5044465;28;20071;-79
2022/07/13 00:09:01;;;;;;;24.45;22.30;;;;;;;20.95;75.50;102074.00;5046890;28;20079;-79
2022/07/13 00:11:27;;;;;;;23.17;21.17;;;;;;;21.13;75.08;102069.41;5044265;28;20104;-78
2022/07/13 00:13:52;;;;;;;24.08;22.08;;;;;;;20.97;75.53;102048.28;5044699;28;20036;-79
2022/07/13 00:16:17;;;;;;;24.10;22.00;;;;;;;20.97;75.29;102045.63;5044058;28;20037;-78
2022/07/13 00:18:43;;;;;;;23.90;21.80;;;;;;;20.98;75.26;102049.91;5043545;28;20072;-79
2022/07/13 00:21:08;;;;;;;23.77;21.50;;;;;;;20.95;75.10;102055.53;5046440;28;20485;-78
2022/07/13 00:23:34;;;;;;;23.63;21.52;;;;;;;20.93;75.08;102057.50;5045647;28;20037;-78
2022/07/13 00:25:59;;;;;;;23.55;21.25;;;;;;;20.96;75.28;102054.53;5046124;28;20013;-79
2022/07/13 00:28:25;;;;;;;23.50;21.40;;;;;;;20.85;74.96;102046.94;5044835;28;20033;-79
2022/07/13 00:30:50;;;;;;;22.77;20.70;;;;;;;20.76;74.73;102024.19;5046029;28;20146;-79
2022/07/13 00:33:15;;;;;;;21.95;20.00;;;;;;;20.77;75.25;102033.75;5045747;28;20119;-79
2022/07/13 00:35:41;;;;;;;22.52;20.45;;;;;;;20.84;76.09;102037.41;5045793;28;20024;-79
2022/07/13 00:38:06;;;;;;;21.83;19.77;;;;;;;20.73;76.07;102019.25;5045181;28;20043;-78
2022/07/13 00:40:31;;;;;;;22.55;20.58;;;;;;;20.73;75.68;102019.25;5044443;28;20292;-78
2022/07/13 00:42:57;;;;;;;21.85;20.05;;;;;;;20.63;76.49;102009.66;5043116;28;20021;-78
2022/07/13 00:45:23;;;;;;;22.27;20.17;;;;;;;20.58;76.47;102006.69;5046380;28;20472;-78
2022/07/13 00:47:51;;;;;;;22.10;20.13;;;;;;;20.55;76.23;102009.66;5045972;28;20028;-79
2022/07/13 00:50:17;;;;;;;21.65;19.73;;;;;;;20.74;76.37;102005.06;5044591;28;20064;-79
2022/07/13 00:52:43;;;;;;;22.63;20.63;;;;;;;20.76;75.91;102003.09;5040828;28;20140;-79
2022/07/13 00:55:09;;;;;;;22.02;19.92;;;;;;;20.77;75.57;102004.75;5046803;28;20437;-79
2022/07/13 00:57:36;;;;;;;21.90;20.02;;;;;;;20.81;74.28;101998.16;5037891;28;20567;-78
2022/07/13 01:00:10;;;;;;;22.80;20.70;;;;;;;20.75;74.93;101985.63;5039576;28;20063;-78
2022/07/13 01:02:46;;;;;;;21.50;19.50;;;;;;;20.82;74.27;101991.91;5041183;28;20039;-79
2022/07/13 01:05:15;;;;;;;21.63;19.73;;;;;;;20.72;74.38;101983.34;5040486;28;20032;-79
2022/07/13 01:07:40;;;;;;;22.48;20.48;;;;;;;20.70;74.83;101978.19;5044530;28;20039;-78
2022/07/13 01:10:08;;;;;;;22.63;20.73;;;;;;;20.68;75.07;101975.72;5044301;28;20377;-78
2022/07/13 01:12:36;;;;;;;22.60;20.60;;;;;;;20.66;75.00;101977.72;5041431;28;20079;-78
2022/07/13 01:15:03;;;;;;;22.23;20.13;;;;;;;20.65;74.78;101985.81;5043610;28;20032;-79
2022/07/13 01:17:30;;;;;;;22.42;20.38;;;;;;;20.61;74.64;101980.00;5032427;28;20079;-80
2022/07/13 01:19:56;;;;;;;23.23;21.23;;;;;;;20.51;75.11;101981.97;5044089;28;20036;-79
2022/07/13 01:22:25;;;;;;;22.27;20.30;;;;;;;20.54;75.85;101988.75;5037982;28;20035;-79
2022/07/13 01:24:52;;;;;;;22.80;20.75;;;;;;;20.48;76.00;101979.69;5043319;28;20035;-78
2022/07/13 01:27:17;;;;;;;22.27;20.38;;;;;;;20.52;75.88;101985.44;5044951;28;20031;-79
2022/07/13 01:29:43;;;;;;;23.02;21.02;;;;;;;20.61;75.34;101985.28;5033806;28;20037;-79
2022/07/13 01:32:08;;;;;;;22.45;20.42;;;;;;;20.52;75.68;101974.88;5040046;28;20486;-79
2022/07/13 01:34:34;;;;;;;22.17;20.15;;;;;;;20.60;75.83;101975.75;5035773;28;20045;-78
2022/07/13 01:37:00;;;;;;;22.95;20.92;;;;;;;20.64;74.57;101974.44;5041756;28;20048;-78
2022/07/13 01:39:26;;;;;;;22.83;20.65;;;;;;;20.65;73.37;101959.44;5044269;28;20033;-79
2022/07/13 01:41:51;;;;;;;22.98;20.98;;;;;;;20.59;73.45;101955.63;5045953;28;20036;-79
2022/07/13 01:44:17;;;;;;;22.42;20.42;;;;;;;20.66;72.99;101956.63;5044424;28;20070;-79
2022/07/13 01:46:42;;;;;;;22.25;20.20;;;;;;;20.63;73.11;101956.94;5037129;28;20032;-79
2022/07/13 01:49:08;;;;;;;22.58;20.67;;;;;;;20.63;72.61;101956.13;5045130;28;20064;-78
2022/07/13 01:51:33;;;;;;;22.45;20.35;;;;;;;20.69;73.37;101966.00;5044398;28;20493;-78
2022/07/13 01:53:58;;;;;;;22.58;20.58;;;;;;;20.61;72.98;101955.47;5044734;28;20094;-78
2022/07/13 01:56:24;;;;;;;22.48;20.45;;;;;;;20.63;72.48;101962.22;5044861;28;20483;-78
2022/07/13 01:58:49;;;;;;;22.40;20.40;;;;;;;20.61;73.59;101948.38;5041680;28;20098;-78
2022/07/13 02:01:15;;;;;;;22.27;20.00;;;;;;;20.66;72.69;101956.63;5046404;28;20032;-78
2022/07/13 02:03:41;;;;;;;22.35;19.92;;;;;;;20.68;73.03;101959.91;5027475;28;20056;-79
2022/07/13 02:06:06;;;;;;;22.52;20.52;;;;;;;20.64;72.94;101961.25;5041528;28;20025;-78
2022/07/13 02:08:32;;;;;;;21.65;19.85;;;;;;;20.61;72.88;101958.94;5036295;28;20541;-79
2022/07/13 02:10:58;;;;;;;22.42;20.42;;;;;;;20.55;73.50;101943.78;5049071;28;20410;-78
2022/07/13 02:13:23;;;;;;;21.33;19.52;;;;;;;20.61;72.58;101948.38;5045643;28;20530;-79
2022/07/13 02:15:49;;;;;;;21.30;19.52;;;;;;;20.56;72.77;101950.69;5054904;28;20095;-78
2022/07/13 02:18:14;;;;;;;21.60;19.70;;;;;;;20.50;73.63;101945.25;5048851;28;20461;-78
2022/07/13 02:20:40;;;;;;;21.48;19.35;;;;;;;20.48;73.26;101926.97;5049385;28;20025;-79
2022/07/13 02:23:05;;;;;;;21.42;19.33;;;;;;;20.44;73.83;101941.41;5047217;28;20377;-78
2022/07/13 02:25:34;;;;;;;20.48;18.67;;;;;;;20.47;72.90;101941.09;5047972;28;20469;-78
2022/07/13 02:28:00;;;;;;;21.33;19.30;;;;;;;20.45;73.41;101929.88;5047648;28;20381;-79
2022/07/13 02:30:25;;;;;;;21.30;19.35;;;;;;;20.47;73.01;101925.28;5048450;28;20503;-78
2022/07/13 02:32:52;;;;;;;20.75;18.88;;;;;;;20.50;73.13;101917.06;5041232;28;20100;-79
2022/07/13 02:35:17;;;;;;;21.13;19.13;;;;;;;20.42;72.99;101911.78;5043761;28;20522;-78
2022/07/13 02:37:43;;;;;;;20.90;18.85;;;;;;;20.44;72.87;101912.44;5046318;28;20115;-78
2022/07/13 02:40:09;;;;;;;20.73;18.90;;;;;;;20.42;73.17;101907.31;5048363;28;20370;-79
2022/07/13 02:42:35;;;;;;;20.48;18.42;;;;;;;20.42;73.09;101911.78;5047418;28;20072;-78
2022/07/13 02:45:01;;;;;;;21.27;19.30;;;;;;;20.33;73.20;101902.19;5048778;28;20482;-78
2022/07/13 02:47:26;;;;;;;21.67;19.67;;;;;;;20.32;73.43;101916.38;5047630;28;20064;-79
2022/07/13 02:49:51;;;;;;;21.10;19.20;;;;;;;20.34;73.22;101903.84;5048825;28;20070;-78
2022/07/13 02:52:17;;;;;;;21.58;19.67;;;;;;;20.32;73.31;101909.28;5047311;28;20111;-79
2022/07/13 02:54:43;;;;;;;20.88;19.00;;;;;;;20.32;73.22;101905.81;5043735;28;20040;-78
2022/07/13 02:57:08;;;;;;;21.15;19.17;;;;;;;20.33;73.32;101902.19;5047968;28;20075;-78
2022/07/13 02:59:35;;;;;;;20.80;18.83;;;;;;;20.29;73.54;101900.88;5046124;28;20037;-79
2022/07/13 03:02:01;;;;;;;21.08;19.17;;;;;;;20.26;73.60;101901.22;5046617;28;20029;-79
2022/07/13 03:04:26;;;;;;;20.73;18.92;;;;;;;20.25;73.56;101902.19;5046994;28;20051;-79
2022/07/13 03:06:52;;;;;;;20.30;18.40;;;;;;;20.22;73.71;101905.97;5044873;28;20469;-79
2022/07/13 03:09:17;;;;;;;20.77;18.77;;;;;;;20.27;74.07;101906.31;5046377;28;20043;-79
2022/07/13 03:11:43;;;;;;;21.42;19.33;;;;;;;20.19;74.01;101901.03;5041663;28;20035;-79
2022/07/13 03:14:08;;;;;;;21.20;19.20;;;;;;;20.10;74.41;101876.47;5046756;28;20044;-79
2022/07/13 03:16:34;;;;;;;20.35;18.42;;;;;;;20.15;73.51;101879.47;5062212;28;20060;-79
2022/07/13 03:19:00;;;;;;;20.45;18.50;;;;;;;20.14;74.17;101880.44;4981113;22;1076269;-70
2022/07/13 03:21:25;;;;;;;20.55;18.50;;;;;;;20.16;73.83;101875.84;4999272;28;20034;-70
2022/07/13 03:23:50;;;;;;;20.75;18.65;;;;;;;20.22;73.91;101886.72;5011236;28;20022;-67
2022/07/13 03:26:16;;;;;;;21.10;19.13;;;;;;;20.11;74.40;101862.31;5007020;28;20180;-71
2022/07/13 03:28:41;;;;;;;20.70;18.80;;;;;;;20.17;74.01;101877.47;5006130;28;20539;-69
2022/07/13 03:31:06;;;;;;;20.48;18.63;;;;;;;20.22;73.62;101884.06;5008007;28;20465;-69
2022/07/13 03:33:32;;;;;;;20.25;18.48;;;;;;;20.22;73.69;101878.81;5006295;28;20562;-70
2022/07/13 03:35:57;;;;;;;19.13;17.27;;;;;;;20.24;74.10;101876.81;5002156;28;20125;-70
2022/07/13 03:38:22;;;;;;;20.45;18.45;;;;;;;20.22;73.42;101873.53;5006734;28;20048;-70
2022/07/13 03:40:48;;;;;;;20.27;18.35;;;;;;;20.22;73.17;101878.81;5009036;28;20022;-69
2022/07/13 03:43:13;;;;;;;19.75;17.88;;;;;;;20.24;72.39;101871.56;5000485;28;20026;-70
2022/07/13 03:45:38;;;;;;;20.13;18.33;;;;;;;20.24;72.37;101874.19;5004691;28;20032;-69
2022/07/13 03:48:05;;;;;;;20.02;18.20;;;;;;;20.19;71.91;101868.59;5014301;28;20052;-69
2022/07/13 03:50:30;;;;;;;19.95;18.08;;;;;;;20.19;72.15;101874.69;5000097;28;20037;-69
2022/07/13 03:52:56;;;;;;;20.02;17.95;;;;;;;20.15;71.92;101879.47;5003276;28;20373;-69
2022/07/13 03:55:21;;;;;;;19.65;17.75;;;;;;;20.16;71.77;101870.56;5002590;28;20083;-70
2022/07/13 03:57:46;;;;;;;18.77;16.98;;;;;;;20.16;71.39;101870.56;5000600;28;20029;-70
2022/07/13 04:00:12;;;;;;;19.40;17.50;;;;;;;20.15;71.34;101863.66;5011004;28;20061;-69
2022/07/13 04:02:38;;;;;;;18.67;17.02;;;;;;;20.11;70.97;101867.59;5005534;28;20109;-70
2022/07/13 04:05:04;;;;;;;19.58;17.58;;;;;;;20.16;71.26;101865.28;4999201;28;20055;-70
2022/07/13 04:07:30;;;;;;;19.23;17.42;;;;;;;20.15;71.06;101863.66;5003527;28;20028;-70
2022/07/13 04:09:55;;;;;;;19.02;17.23;;;;;;;20.13;71.00;101868.28;5000930;28;20033;-69
2022/07/13 04:12:21;;;;;;;18.10;16.42;;;;;;;20.15;71.11;101861.03;4999947;28;20026;-70
2022/07/13 04:14:50;;;;;;;18.52;16.63;;;;;;;20.20;70.64;101870.25;5002261;28;20032;-67
2022/07/13 04:17:15;;;;;;;17.60;16.00;;;;;;;20.16;70.62;101860.03;5006911;28;20110;-69
2022/07/13 04:19:41;;;;;;;17.35;15.75;;;;;;;20.20;70.40;101864.97;4998956;28;20030;-69
2022/07/13 04:22:06;;;;;;;17.00;15.40;;;;;;;20.11;70.14;101843.06;4997167;28;20366;-69
2022/07/13 04:24:32;;;;;;;16.55;14.85;;;;;;;20.21;70.42;101850.81;5006292;28;20103;-69
2022/07/13 04:26:57;;;;;;;17.00;15.23;;;;;;;20.30;70.14;101855.09;5001232;28;20033;-69
2022/07/13 04:29:22;;;;;;;16.45;14.88;;;;;;;20.26;69.61;101848.53;4998992;28;20053;-69
2022/07/13 04:31:48;;;;;;;15.02;13.43;;;;;;;20.26;69.13;101853.78;5000792;28;20057;-70
2022/07/13 04:34:13;;;;;;;14.50;13.10;;;;;;;20.21;68.75;101846.38;5007036;28;20133;-65
2022/07/13 04:36:41;;;;;;;14.43;12.93;;;;;;;20.25;69.34;101857.41;5005076;28;20099;-70
2022/07/13 04:39:07;;;;;;;;;;;;;;;20.41;69.28;101847.72;5005771;28;20497;-69
2022/07/13 04:41:32;;;;;;;13.47;11.40;;;;;;;20.28;68.49;101847.34;5005792;28;19969;-69
2022/07/13 04:43:57;;;;;;;12.32;11.02;;;;;;;20.26;68.02;101833.53;4999668;28;20749;-68
2022/07/13 04:46:24;;;;;;;12.57;11.27;;;;;;;20.29;67.99;101842.91;5005957;28;20061;-69
2022/07/13 04:48:50;;;;;;;12.60;11.30;;;;;;;20.35;68.24;101842.25;5002580;28;20034;-69
2022/07/13 04:51:15;;;;;;;11.93;10.73;;;;;;;20.34;68.30;101841.44;5010082;28;20127;-69
2022/07/13 04:53:41;;;;;;;11.73;10.60;;;;;;;20.27;68.04;101834.34;4996078;28;20041;-71
2022/07/13 04:56:06;;;;;;;11.80;10.30;;;;;;;20.36;67.47;101836.03;5004819;28;20068;-69
2022/07/13 04:58:32;;;;;;;12.57;10.13;;;;;;;20.35;67.50;101842.25;5003740;28;20050;-69
2022/07/13 05:00:58;;;;;;;12.13;10.40;;;;;;;20.39;67.41;101840.94;5005970;28;20026;-70
2022/07/13 05:03:23;;;;;;;11.52;9.77;;;;;;;20.42;67.16;101832.72;4999712;28;20030;-69
2022/07/13 05:05:49;;;;;;;11.25;9.48;;;;;;;20.41;67.12;101831.06;5005744;28;20096;-68
2022/07/13 05:08:14;;;;;;;11.35;9.73;;;;;;;20.41;67.47;101833.69;5001704;28;20493;-69
2022/07/13 05:10:39;;;;;;;10.57;9.52;;;;;;;20.36;67.71;101836.84;5004380;28;20030;-71
2022/07/13 05:13:05;;;;;;;10.75;9.65;;;;;;;20.34;68.02;101824.81;4995564;28;20032;-71
2022/07/13 05:15:30;;;;;;;10.93;9.35;;;;;;;20.43;67.92;101834.38;5005617;28;20043;-70
2022/07/13 05:17:55;;;;;;;10.00;8.85;;;;;;;20.39;67.92;101833.84;5004227;28;20494;-71
2022/07/13 05:20:21;;;;;;;10.05;9.00;;;;;;;20.44;67.24;101836.00;4996636;28;20035;-69
2022/07/13 05:22:46;;;;;;;10.20;8.43;;;;;;;20.47;67.77;101840.97;4998097;28;20041;-69
2022/07/13 05:25:11;;;;;;;9.32;8.35;;;;;;;20.46;67.65;101833.22;5000872;28;20038;-70
2022/07/13 05:27:37;;;;;;;9.77;8.55;;;;;;;20.46;67.43;101833.22;5000731;28;20048;-71
2022/07/13 05:30:03;;;;;;;10.20;8.15;;;;;;;20.53;67.43;101840.31;5012574;28;20108;-70
2022/07/13 05:32:29;;;;;;;9.70;8.18;;;;;;;20.54;67.82;101847.25;5005902;28;20049;-71
2022/07/13 05:34:54;;;;;;;10.18;8.25;;;;;;;20.61;67.67;101848.22;4999844;28;20462;-69
2022/07/13 05:37:20;;;;;;;11.23;7.82;;;;;;;20.61;68.12;101848.22;5003618;28;20033;-71
2022/07/13 05:39:46;;;;;;;11.15;8.05;;;;;;;20.56;67.51;101845.25;4993549;28;20022;-71
2022/07/13 05:42:13;;;;;;;7.95;7.15;;;;;;;20.60;67.58;101851.84;4990590;28;20040;-70
2022/07/13 05:44:38;;;;;;;11.88;7.55;;;;;;;20.62;67.49;101854.31;5008000;28;20040;-70
2022/07/13 05:47:04;;;;;;;8.90;7.35;;;;;;;20.59;67.41;101863.38;5009674;28;20109;-70
2022/07/13 05:49:29;;;;;;;9.10;7.50;;;;;;;20.63;67.58;101859.41;5015363;28;20053;-70
2022/07/13 05:51:54;;;;;;;12.13;7.70;;;;;;;20.65;67.66;101860.09;5002994;28;20022;-73
2022/07/13 05:54:20;;;;;;;10.50;7.57;;;;;;;20.68;68.14;101859.75;5005142;28;20116;-70
2022/07/13 05:56:45;;;;;;;8.82;7.65;;;;;;;20.68;68.00;101858.91;5004983;28;20076;-70
2022/07/13 05:59:10;;;;;;;8.82;7.85;;;;;;;20.70;68.57;101859.56;5003951;28;20029;-70
2022/07/13 06:01:36;;;;;;;9.57;8.45;;;;;;;20.75;68.04;101861.69;5000269;28;20129;-71
2022/07/13 06:04:01;;;;;;;9.57;8.38;;;;;;;20.77;68.50;101857.09;5000842;28;20026;-71
2022/07/13 06:06:26;;;;;;;10.07;8.82;;;;;;;20.86;68.24;101866.63;5002774;28;20386;-72
2022/07/13 06:08:52;;;;;;;9.98;8.98;;;;;;;20.85;69.02;101843.91;4998792;28;20065;-70
2022/07/13 06:11:17;;;;;;;10.45;9.02;;;;;;;20.97;69.08;101855.75;5004628;28;20263;-71
2022/07/13 06:13:42;;;;;;;10.60;9.00;;;;;;;20.96;68.49;101848.81;5005269;28;20309;-71
2022/07/13 06:16:08;;;;;;;11.63;9.02;;;;;;;21.04;68.11;101848.78;5003436;28;20037;-71
2022/07/13 06:18:33;;;;;;;9.98;8.98;;;;;;;21.08;68.29;101842.19;5003281;28;20052;-70
2022/07/13 06:20:58;;;;;;;9.80;8.63;;;;;;;21.06;68.30;101846.81;4994311;28;20024;-70
2022/07/13 06:23:24;;;;;;;10.30;9.25;;;;;;;21.08;68.43;101855.38;4999831;28;20564;-70
2022/07/13 06:25:49;;;;;;;10.68;9.25;;;;;;;21.19;68.36;101865.56;5003261;28;20632;-70
2022/07/13 06:28:15;;;;;;;11.25;9.10;;;;;;;21.25;68.32;101850.06;5006647;28;20112;-71
2022/07/13 06:30:41;;;;;;;10.45;9.05;;;;;;;21.29;68.12;101851.38;4995845;28;20478;-71
2022/07/13 06:33:07;;;;;;;11.23;9.38;;;;;;;21.32;68.43;101845.78;5016441;28;20038;-71
2022/07/13 06:35:32;;;;;;;10.75;9.65;;;;;;;21.36;68.28;101841.81;4996089;28;20485;-70
2022/07/13 06:37:58;;;;;;;9.75;8.75;;;;;;;21.53;67.92;101853.94;5003439;28;20080;-71
2022/07/13 06:40:24;;;;;;;11.02;8.90;;;;;;;21.58;68.20;101848.97;5009203;28;20049;-71
2022/07/13 06:42:50;;;;;;;10.73;8.25;;;;;;;21.61;66.80;101856.53;5012252;28;20061;-72
2022/07/13 06:45:16;;;;;;;9.50;8.13;;;;;;;21.65;67.42;101852.56;5003344;28;20029;-71
2022/07/13 06:47:42;;;;;;;14.00;8.15;;;;;;;21.71;66.59;101851.84;5000480;28;20377;-71
2022/07/13 06:50:08;;;;;;;9.23;7.72;;;;;;;21.77;65.73;101855.63;5001324;28;20533;-71
2022/07/13 06:52:34;;;;;;;9.88;7.65;;;;;;;21.86;66.33;101848.50;4998886;28;20042;-71
2022/07/13 06:55:00;;;;;;;9.85;7.90;;;;;;;21.87;67.33;101845.66;5008244;28;20470;-71
2022/07/13 06:57:25;;;;;;;9.43;8.07;;;;;;;21.95;67.01;101842.16;4990378;28;20076;-71
2022/07/13 06:59:51;;;;;;;9.90;7.97;;;;;;;22.03;67.40;101843.94;5002909;28;20030;-71
2022/07/13 07:02:16;;;;;;;8.82;7.32;;;;;;;22.02;67.28;101837.78;5008036;28;20034;-70
2022/07/13 07:04:41;;;;;;;10.48;7.75;;;;;;;22.14;67.22;101851.47;5007062;28;20056;-71
2022/07/13 07:07:08;;;;;;;11.55;7.63;;;;;;;22.21;66.94;101861.16;5001437;28;20025;-71
2022/07/13 07:09:34;;;;;;;9.65;7.38;;;;;;;22.20;66.84;101856.88;5001070;28;20121;-70
2022/07/13 07:11:59;;;;;;;8.50;6.53;;;;;;;22.22;66.03;101854.03;4999656;28;20152;-70
2022/07/13 07:14:24;;;;;;;8.50;6.50;;;;;;;22.33;65.47;101860.75;5013919;28;20025;-69
2022/07/13 07:16:49;;;;;;;9.82;6.50;;;;;;;22.33;65.46;101856.28;5009350;28;20038;-71
2022/07/13 07:19:15;;;;;;;8.07;5.68;;;;;;;22.37;65.73;101856.75;5004630;28;20053;-71
2022/07/13 07:21:40;;;;;;;8.60;6.28;;;;;;;22.43;65.17;101861.31;5016784;28;20022;-70
2022/07/13 07:24:06;;;;;;;9.23;6.13;;;;;;;22.48;65.38;101864.22;5007673;28;20536;-71
2022/07/13 07:26:31;;;;;;;9.02;6.47;;;;;;;22.44;65.75;101847.09;5003153;28;20112;-70
2022/07/13 07:28:58;;;;;;;8.70;6.00;;;;;;;22.57;65.25;101854.44;4994639;28;20065;-71
2022/07/13 07:31:23;;;;;;;10.50;6.00;;;;;;;22.69;65.55;101856.44;5004859;28;20038;-70
2022/07/13 07:33:49;;;;;;;8.27;6.13;;;;;;;22.76;65.36;101857.38;5002163;28;20038;-70
2022/07/13 07:36:16;;;;;;;8.93;6.25;;;;;;;22.86;63.69;101856.28;5008790;28;20036;-70
2022/07/13 07:38:45;;;;;;;8.40;6.53;;;;;;;23.01;63.35;101865.09;5008697;28;20036;-71
2022/07/13 07:41:11;;;;;;;8.18;6.60;;;;;;;22.95;63.38;101861.38;4997864;28;20465;-71
2022/07/13 07:43:39;;;;;;;9.20;6.28;;;;;;;23.01;64.72;101854.53;5015828;28;20288;-70
2022/07/13 07:46:05;;;;;;;9.88;6.55;;;;;;;23.01;64.94;101851.88;5005937;28;20049;-71
2022/07/13 07:48:30;;;;;;;10.60;6.57;;;;;;;23.06;65.55;101846.88;5012154;28;20461;-71
2022/07/13 07:50:56;;;;;;;10.90;6.25;;;;;;;23.16;64.31;101855.31;5003999;28;20470;-71
2022/07/13 07:53:21;;;;;;;9.13;6.90;;;;;;;23.15;63.34;101858.97;5001386;28;20036;-68
2022/07/13 07:55:47;;;;;;;8.25;6.70;;;;;;;23.21;65.17;101863.53;5022652;28;20049;-71
2022/07/13 07:58:13;;;;;;;10.90;7.32;;;;;;;23.21;64.53;101850.31;4997599;28;20041;-70
2022/07/13 08:00:40;;;;;;;8.90;6.80;;;;;;;23.22;64.42;101862.53;5006520;28;20026;-70
2022/07/13 08:03:06;;;;;;;9.93;7.35;;;;;;;23.21;65.93;101854.78;5005190;28;20072;-71
2022/07/13 08:05:32;;;;;;;9.50;7.03;;;;;;;23.23;66.31;101852.78;5004084;28;20034;-71
2022/07/13 08:07:57;;;;;;;9.30;6.38;;;;;;;23.42;64.98;101841.63;5009386;28;20133;-70
2022/07/13 08:10:22;;;;;;;10.88;7.07;;;;;;;23.40;64.07;101853.38;5006780;28;20057;-70
2022/07/13 08:12:48;;;;;;;9.10;6.97;;;;;;;23.38;65.26;101835.03;5008233;28;20116;-70
2022/07/13 08:15:13;;;;;;;9.52;6.55;;;;;;;23.46;64.32;101842.91;5006553;28;20045;-71
2022/07/13 08:17:39;;;;;;;7.97;6.55;;;;;;;23.39;64.51;101857.03;5006692;28;20057;-71
2022/07/13 08:20:08;;;;;;;10.77;6.68;;;;;;;23.43;65.34;101858.34;5007267;28;20022;-71
2022/07/13 08:22:34;;;;;;;9.65;6.53;;;;;;;23.43;64.60;101858.34;4998451;28;20389;-71
2022/07/13 08:24:59;;;;;;;8.35;5.97;;;;;;;23.59;64.17;101863.41;5006318;28;20474;-70
2022/07/13 08:27:26;;;;;;;10.45;6.68;;;;;;;23.64;65.38;101860.25;5002261;28;20030;-71
2022/07/13 08:29:52;;;;;;;8.82;6.32;;;;;;;23.79;64.48;101864.47;5004591;28;20127;-70
2022/07/13 08:32:17;;;;;;;8.93;6.30;;;;;;;23.74;63.00;101855.47;5005233;28;20464;-70
2022/07/13 08:40:11;;;;;;;9.45;6.68;;;;;;;23.85;63.47;101857.63;5006530;28;20461;-70
2022/07/13 08:42:38;;;;;;;8.15;6.20;;;;;;;23.90;63.34;101860.53;5007664;28;20447;-70
2022/07/13 08:45:05;;;;;;;9.17;6.30;;;;;;;23.99;63.99;101869.19;5006787;28;20057;-71
2022/07/13 08:47:30;;;;;;;9.18;6.60;;;;;;;24.03;62.72;101870.47;5003245;28;20044;-70
2022/07/13 08:50:04;;;;;;;10.77;6.93;;;;;;;24.11;63.48;101863.19;5001343;28;20026;-71
2022/07/13 08:52:30;;;;;;;8.25;6.03;;;;;;;24.08;64.19;101857.44;5006111;28;20407;-70
2022/07/13 08:54:58;;;;;;;9.85;6.82;;;;;;;24.14;63.17;101872.59;5003683;28;20470;-71
2022/07/13 08:57:24;;;;;;;;;;;;;;;24.31;63.45;101868.66;5003537;28;20140;-70
2022/07/13 08:59:51;;;;;;;9.15;6.32;;;;;;;24.17;62.93;101860.81;5008969;28;19988;-71
2022/07/13 09:02:16;;;;;;;9.95;6.55;;;;;;;24.16;63.47;101870.59;5001131;28;20371;-71
2022/07/13 09:04:42;;;;;;;8.93;6.85;;;;;;;24.18;62.71;101857.97;5000264;28;20037;-70
2022/07/13 09:07:11;;;;;;;9.18;6.70;;;;;;;24.16;63.01;101867.13;5002584;28;20158;-70
2022/07/13 09:09:38;;;;;;;9.90;6.85;;;;;;;24.23;63.84;101881.25;5001096;28;20026;-70
2022/07/13 09:12:16;;;;;;;9.50;6.60;;;;;;;24.22;63.98;101875.13;5005333;28;20021;-71
2022/07/13 09:14:52;;;;;;;11.77;7.15;;;;;;;24.13;64.34;101870.94;4987601;28;20487;-70
2022/07/13 09:17:25;;;;;;;9.57;6.38;;;;;;;24.25;63.50;101874.72;5002441;28;20478;-70
2022/07/13 09:19:51;;;;;;;10.50;6.60;;;;;;;24.25;63.45;101858.00;5001167;28;20057;-70
2022/07/13 09:22:16;;;;;;;8.30;6.07;;;;;;;24.34;62.92;101868.34;4985807;28;20450;-70
2022/07/13 09:24:43;;;;;;;9.02;6.35;;;;;;;24.31;64.13;101868.66;4999821;28;20655;-70
2022/07/13 09:27:09;;;;;;;10.63;7.20;;;;;;;24.41;62.54;101868.38;5001538;28;20049;-70
2022/07/13 09:29:36;;;;;;;7.90;6.53;;;;;;;24.43;63.59;101881.44;5005466;28;20018;-70
2022/07/13 09:32:07;;;;;;;8.02;6.30;;;;;;;24.42;63.06;101880.63;5005776;28;20457;-70
2022/07/13 09:34:50;;;;;;;10.70;6.63;;;;;;;24.46;63.27;101881.91;4998516;28;20029;-70
2022/07/13 09:37:18;;;;;;;9.50;6.82;;;;;;;24.47;62.33;101882.72;5004430;28;20033;-70
2022/07/13 09:40:11;;;;;;;8.13;6.40;;;;;;;24.58;63.12;101884.84;5002834;28;20791;-70
2022/07/13 09:42:39;;;;;;;10.00;6.78;;;;;;;24.69;63.67;101878.19;5000819;28;20068;-70
2022/07/13 09:48:00;;;;;;;8.90;6.50;;;;;;;24.75;61.29;101885.38;5004381;28;20119;-70
2022/07/13 09:50:39;;;;;;;9.52;6.60;;;;;;;24.93;61.85;101887.56;5001751;28;20479;-71
2022/07/13 09:53:23;;;;;;;8.70;6.30;;;;;;;25.00;62.73;101883.09;5002936;28;20036;-70
2022/07/13 09:55:51;;;;;;;10.15;6.00;;;;;;;25.25;62.54;101892.28;5002689;28;20053;-71
2022/07/13 09:58:22;;;;;;;9.20;6.57;;;;;;;25.23;59.14;101886.31;5003169;28;20084;-71
2022/07/13 10:00:48;;;;;;;13.48;5.78;;;;;;;25.34;60.28;101880.47;5003284;28;20124;-70
2022/07/13 10:03:14;;;;;;;8.27;5.95;;;;;;;25.58;61.16;101894.28;5000863;28;20481;-70
2022/07/13 10:05:40;;;;;;;8.60;5.85;;;;;;;25.61;58.47;101899.19;5005558;28;20037;-70
2022/07/13 10:08:07;;;;;;;9.20;5.43;;;;;;;25.71;59.17;101899.63;5004109;28;20061;-71
2022/07/13 10:10:33;;;;;;;8.70;5.90;;;;;;;25.67;57.14;101896.53;5004400;28;20568;-70
2022/07/13 10:13:05;;;;;;;6.85;4.70;;;;;;;25.88;57.28;101892.97;5004575;28;20061;-70
2022/07/13 10:15:30;;;;;;;6.80;4.30;;;;;;;25.81;54.97;101894.81;5003936;28;20037;-70
2022/07/13 10:17:57;;;;;;;7.03;5.07;;;;;;;25.77;56.27;101901.53;4986975;28;20064;-70
2022/07/13 10:20:25;;;;;;;8.25;4.63;;;;;;;25.82;56.31;101891.13;4998886;28;20509;-70
2022/07/13 10:22:51;;;;;;;8.85;4.97;;;;;;;25.77;57.76;101898.88;4994091;28;20066;-70
2022/07/13 10:25:17;;;;;;;8.20;4.60;;;;;;;25.67;56.38;101890.41;4994942;28;20236;-70
2022/07/13 10:27:43;;;;;;;7.20;4.60;;;;;;;25.74;56.62;101891.28;4999551;28;20069;-70
2022/07/13 10:30:21;;;;;;;8.68;4.90;;;;;;;25.88;56.14;101900.94;4999671;28;20163;-70
2022/07/13 10:32:47;;;;;;;6.60;5.00;;;;;;;25.82;56.82;101898.28;4999181;28;20038;-71
2022/07/13 10:35:16;;;;;;;8.70;5.45;;;;;;;25.72;55.48;101913.75;5002907;28;20356;-71
2022/07/13 10:38:00;;;;;;;6.68;4.95;;;;;;;25.95;56.81;101909.75;4999287;28;20464;-70
2022/07/13 10:40:34;;;;;;;8.27;4.85;;;;;;;26.16;56.62;101905.31;5001842;28;20029;-70
2022/07/13 10:43:04;;;;;;;8.02;5.10;;;;;;;26.17;56.06;101906.94;4999218;28;20488;-71
2022/07/13 10:45:32;;;;;;;7.35;5.28;;;;;;;26.20;56.10;101903.88;4998207;28;20084;-70
2022/07/13 10:47:58;;;;;;;8.68;5.50;;;;;;;26.24;54.30;101904.28;5000858;28;20076;-70
2022/07/13 10:50:26;;;;;;;9.27;5.53;;;;;;;26.31;57.52;101897.94;4999129;28;20033;-71
2022/07/13 10:52:52;;;;;;;8.30;5.40;;;;;;;26.44;54.22;101903.31;5001992;28;20030;-71
2022/07/13 10:55:27;;;;;;;9.80;5.72;;;;;;;26.41;54.08;101901.06;5001815;28;20030;-70
2022/07/13 10:57:52;;;;;;;6.20;4.72;;;;;;;26.59;55.59;101910.28;4998656;28;20134;-70
2022/07/13 11:02:51;;;;;;;7.95;4.55;;;;;;;26.58;52.40;101903.31;5001247;28;20041;-70
2022/07/13 11:05:26;;;;;;;8.15;4.60;;;;;;;26.85;52.58;101920.91;5006954;28;20088;-70
2022/07/13 11:07:53;;;;;;;8.30;4.65;;;;;;;26.86;50.98;101917.22;5007047;28;20419;-70
2022/07/13 11:10:27;;;;;;;6.75;4.03;;;;;;;27.12;54.91;101915.56;5008110;28;20026;-71
2022/07/13 11:13:04;;;;;;;7.00;3.78;;;;;;;27.24;52.59;101908.56;5003894;28;20513;-70
2022/07/13 11:15:50;;;;;;;7.93;4.05;;;;;;;27.40;52.10;101913.44;4994162;28;20025;-70
2022/07/13 11:18:21;;;;;;;8.05;3.97;;;;;;;27.42;50.89;101911.41;5007647;28;20478;-72
2022/07/13 11:21:17;;;;;;;5.75;4.00;;;;;;;27.48;52.45;101921.22;4996216;28;20056;-70
2022/07/13 11:26:39;;;;;;;7.05;4.60;;;;;;;27.38;50.42;101910.16;4995924;28;20045;-70
2022/07/13 11:29:16;;;;;;;6.25;4.35;;;;;;;27.21;50.14;101914.31;5001894;28;20037;-70